Bulverde, Texas
Current Conditions -  °F | °C
As of 7:51 PM on Sunday 21 Dec 2014 (Local Time) from KSAT Reporting Station
Overcast Overcast  
Wind Chill: 55°   Ceiling: 1600
Heat Index: 55°   Visibility: 10mi
Dew Point: 51°   Wind: 8mph
Humidity: 86%   Direction: 200°SSW
Pressure: 29.89"   Gusts: NA
Location:  29.74°N, 98.45°W
Report Text: KSAT 220151Z 20007KT 10SM SCT010 OVC016 13/11 A2989 RMK AO2 SLP111 T01280106
Loading
Personal Weather Stations






























Interactive Weather Map New forecast layout! Learn more

10-Day Weather Forecast

Advertisements
Track Severe Weather on mobile